sensor_id;sensor_type;location;lat;lon;timestamp;P1;durP1;ratioP1;P2;durP2;ratioP2
41514;SDS011;27247;48.020;16.720;2023-04-07T00:02:12;27.25;;;16.02;;
41514;SDS011;27247;48.020;16.720;2023-04-07T00:06:23;22.07;;;14.10;;
41514;SDS011;27247;48.020;16.720;2023-04-07T00:10:33;23.83;;;15.60;;
41514;SDS011;27247;48.020;16.720;2023-04-07T00:14:44;23.83;;;14.63;;
41514;SDS011;27247;48.020;16.720;2023-04-07T00:18:54;24.77;;;14.67;;
41514;SDS011;27247;48.020;16.720;2023-04-07T00:23:05;22.30;;;15.13;;
41514;SDS011;27247;48.020;16.720;2023-04-07T00:27:15;24.73;;;15.17;;
41514;SDS011;27247;48.020;16.720;2023-04-07T00:31:25;21.98;;;13.98;;
41514;SDS011;27247;48.020;16.720;2023-04-07T00:35:36;22.88;;;15.57;;
41514;SDS011;27247;48.020;16.720;2023-04-07T00:39:46;23.83;;;15.27;;
41514;SDS011;27247;48.020;16.720;2023-04-07T00:43:57;25.17;;;14.35;;
41514;SDS011;27247;48.020;16.720;2023-04-07T00:48:07;22.02;;;14.32;;
41514;SDS011;27247;48.020;16.720;2023-04-07T00:52:19;22.83;;;14.52;;
41514;SDS011;27247;48.020;16.720;2023-04-07T00:56:36;20.10;;;13.25;;
41514;SDS011;27247;48.020;16.720;2023-04-07T01:05:24;24.35;;;14.93;;
41514;SDS011;27247;48.020;16.720;2023-04-07T01:09:36;19.42;;;13.00;;
41514;SDS011;27247;48.020;16.720;2023-04-07T01:14:03;25.33;;;14.52;;
41514;SDS011;27247;48.020;16.720;2023-04-07T01:18:16;20.45;;;13.77;;
41514;SDS011;27247;48.020;16.720;2023-04-07T01:22:32;26.80;;;14.43;;
41514;SDS011;27247;48.020;16.720;2023-04-07T01:26:53;25.25;;;14.05;;
41514;SDS011;27247;48.020;16.720;2023-04-07T01:31:14;22.75;;;13.98;;
41514;SDS011;27247;48.020;16.720;2023-04-07T01:35:29;21.33;;;13.13;;
41514;SDS011;27247;48.020;16.720;2023-04-07T01:39:42;20.73;;;13.68;;
41514;SDS011;27247;48.020;16.720;2023-04-07T01:43:53;24.95;;;14.80;;
41514;SDS011;27247;48.020;16.720;2023-04-07T01:48:04;22.42;;;14.48;;
41514;SDS011;27247;48.020;16.720;2023-04-07T01:52:16;24.10;;;14.18;;
41514;SDS011;27247;48.020;16.720;2023-04-07T01:56:27;22.92;;;13.82;;
41514;SDS011;27247;48.020;16.720;2023-04-07T02:00:37;22.90;;;13.07;;
41514;SDS011;27247;48.020;16.720;2023-04-07T02:09:06;20.17;;;13.18;;
41514;SDS011;27247;48.020;16.720;2023-04-07T02:13:19;19.83;;;13.30;;
41514;SDS011;27247;48.020;16.720;2023-04-07T02:17:30;20.63;;;12.85;;
41514;SDS011;27247;48.020;16.720;2023-04-07T02:21:44;20.65;;;12.45;;
41514;SDS011;27247;48.020;16.720;2023-04-07T02:25:56;19.55;;;13.02;;
41514;SDS011;27247;48.020;16.720;2023-04-07T02:30:07;22.35;;;13.35;;
41514;SDS011;27247;48.020;16.720;2023-04-07T02:34:17;22.50;;;12.88;;
41514;SDS011;27247;48.020;16.720;2023-04-07T02:38:28;21.60;;;12.33;;
41514;SDS011;27247;48.020;16.720;2023-04-07T02:42:38;23.30;;;12.55;;
41514;SDS011;27247;48.020;16.720;2023-04-07T02:46:49;22.67;;;12.75;;
41514;SDS011;27247;48.020;16.720;2023-04-07T02:50:59;23.10;;;12.60;;
41514;SDS011;27247;48.020;16.720;2023-04-07T02:55:10;24.60;;;13.88;;
41514;SDS011;27247;48.020;16.720;2023-04-07T02:59:20;21.92;;;13.15;;
41514;SDS011;27247;48.020;16.720;2023-04-07T03:03:31;19.20;;;12.82;;
41514;SDS011;27247;48.020;16.720;2023-04-07T03:07:42;21.25;;;12.45;;
41514;SDS011;27247;48.020;16.720;2023-04-07T03:11:52;23.23;;;12.85;;
41514;SDS011;27247;48.020;16.720;2023-04-07T03:16:03;23.02;;;12.30;;
41514;SDS011;27247;48.020;16.720;2023-04-07T03:20:13;24.25;;;12.45;;
41514;SDS011;27247;48.020;16.720;2023-04-07T03:24:24;22.13;;;12.70;;
41514;SDS011;27247;48.020;16.720;2023-04-07T03:28:34;17.95;;;11.48;;
41514;SDS011;27247;48.020;16.720;2023-04-07T03:32:44;18.60;;;12.13;;
41514;SDS011;27247;48.020;16.720;2023-04-07T03:36:55;21.75;;;12.95;;
41514;SDS011;27247;48.020;16.720;2023-04-07T03:41:05;21.83;;;12.90;;
41514;SDS011;27247;48.020;16.720;2023-04-07T03:45:15;21.50;;;12.40;;
41514;SDS011;27247;48.020;16.720;2023-04-07T03:49:26;23.33;;;12.77;;
41514;SDS011;27247;48.020;16.720;2023-04-07T03:53:36;25.13;;;13.70;;
41514;SDS011;27247;48.020;16.720;2023-04-07T03:57:47;19.35;;;11.68;;
41514;SDS011;27247;48.020;16.720;2023-04-07T04:01:57;20.17;;;11.95;;
41514;SDS011;27247;48.020;16.720;2023-04-07T04:06:07;20.60;;;12.30;;
41514;SDS011;27247;48.020;16.720;2023-04-07T04:10:18;22.03;;;12.40;;
41514;SDS011;27247;48.020;16.720;2023-04-07T04:14:29;24.52;;;12.20;;
41514;SDS011;27247;48.020;16.720;2023-04-07T04:18:40;21.20;;;12.48;;
41514;SDS011;27247;48.020;16.720;2023-04-07T04:22:50;18.17;;;11.35;;
41514;SDS011;27247;48.020;16.720;2023-04-07T04:27:01;27.20;;;12.73;;
41514;SDS011;27247;48.020;16.720;2023-04-07T04:31:11;24.25;;;12.57;;
41514;SDS011;27247;48.020;16.720;2023-04-07T04:35:22;22.10;;;12.87;;
41514;SDS011;27247;48.020;16.720;2023-04-07T04:39:32;20.02;;;12.50;;
41514;SDS011;27247;48.020;16.720;2023-04-07T04:43:42;22.05;;;11.88;;
41514;SDS011;27247;48.020;16.720;2023-04-07T04:47:53;18.40;;;11.98;;
41514;SDS011;27247;48.020;16.720;2023-04-07T04:52:03;22.47;;;12.13;;
41514;SDS011;27247;48.020;16.720;2023-04-07T04:56:14;21.33;;;12.60;;
41514;SDS011;27247;48.020;16.720;2023-04-07T05:00:24;21.55;;;12.10;;
41514;SDS011;27247;48.020;16.720;2023-04-07T05:04:35;20.00;;;12.75;;
41514;SDS011;27247;48.020;16.720;2023-04-07T05:08:45;23.03;;;13.23;;
41514;SDS011;27247;48.020;16.720;2023-04-07T05:12:56;21.08;;;12.63;;
41514;SDS011;27247;48.020;16.720;2023-04-07T05:17:06;26.02;;;14.00;;
41514;SDS011;27247;48.020;16.720;2023-04-07T05:21:16;25.48;;;14.55;;
41514;SDS011;27247;48.020;16.720;2023-04-07T05:25:29;20.65;;;12.02;;
41514;SDS011;27247;48.020;16.720;2023-04-07T05:29:39;21.38;;;12.65;;
41514;SDS011;27247;48.020;16.720;2023-04-07T05:33:50;21.48;;;12.73;;
41514;SDS011;27247;48.020;16.720;2023-04-07T05:38:00;20.45;;;11.70;;
41514;SDS011;27247;48.020;16.720;2023-04-07T05:42:10;22.48;;;12.10;;
41514;SDS011;27247;48.020;16.720;2023-04-07T05:46:21;20.70;;;13.27;;
41514;SDS011;27247;48.020;16.720;2023-04-07T05:50:31;21.63;;;12.47;;
41514;SDS011;27247;48.020;16.720;2023-04-07T05:54:41;28.52;;;13.15;;
41514;SDS011;27247;48.020;16.720;2023-04-07T05:58:52;21.77;;;11.30;;
41514;SDS011;27247;48.020;16.720;2023-04-07T06:03:02;18.50;;;12.25;;
41514;SDS011;27247;48.020;16.720;2023-04-07T06:07:13;22.83;;;12.70;;
41514;SDS011;27247;48.020;16.720;2023-04-07T06:11:24;19.00;;;12.43;;
41514;SDS011;27247;48.020;16.720;2023-04-07T06:15:36;31.83;;;14.63;;
41514;SDS011;27247;48.020;16.720;2023-04-07T06:19:46;21.10;;;13.43;;
41514;SDS011;27247;48.020;16.720;2023-04-07T06:23:57;22.45;;;12.20;;
41514;SDS011;27247;48.020;16.720;2023-04-07T06:28:07;21.55;;;12.75;;
41514;SDS011;27247;48.020;16.720;2023-04-07T06:32:17;22.80;;;12.73;;
41514;SDS011;27247;48.020;16.720;2023-04-07T06:36:28;25.03;;;13.50;;
41514;SDS011;27247;48.020;16.720;2023-04-07T06:40:38;24.15;;;12.60;;
41514;SDS011;27247;48.020;16.720;2023-04-07T06:44:49;20.75;;;12.98;;
41514;SDS011;27247;48.020;16.720;2023-04-07T06:48:59;21.00;;;13.10;;
41514;SDS011;27247;48.020;16.720;2023-04-07T06:53:10;24.98;;;12.93;;
41514;SDS011;27247;48.020;16.720;2023-04-07T06:57:20;22.42;;;13.63;;
41514;SDS011;27247;48.020;16.720;2023-04-07T07:01:30;24.88;;;14.65;;
41514;SDS011;27247;48.020;16.720;2023-04-07T07:05:41;18.13;;;12.48;;
41514;SDS011;27247;48.020;16.720;2023-04-07T07:09:52;22.40;;;13.17;;
41514;SDS011;27247;48.020;16.720;2023-04-07T07:14:03;22.55;;;13.15;;
41514;SDS011;27247;48.020;16.720;2023-04-07T07:18:13;23.87;;;12.63;;
41514;SDS011;27247;48.020;16.720;2023-04-07T07:22:24;24.88;;;12.90;;
41514;SDS011;27247;48.020;16.720;2023-04-07T07:26:35;22.33;;;12.60;;
41514;SDS011;27247;48.020;16.720;2023-04-07T07:30:45;21.33;;;13.65;;
41514;SDS011;27247;48.020;16.720;2023-04-07T07:34:55;23.88;;;15.20;;
41514;SDS011;27247;48.020;16.720;2023-04-07T07:39:06;22.80;;;14.43;;
41514;SDS011;27247;48.020;16.720;2023-04-07T07:43:16;26.38;;;15.27;;
41514;SDS011;27247;48.020;16.720;2023-04-07T07:47:27;26.45;;;15.93;;
41514;SDS011;27247;48.020;16.720;2023-04-07T07:51:37;26.35;;;15.43;;
41514;SDS011;27247;48.020;16.720;2023-04-07T07:55:49;24.13;;;14.77;;
41514;SDS011;27247;48.020;16.720;2023-04-07T08:00:01;25.92;;;15.13;;
41514;SDS011;27247;48.020;16.720;2023-04-07T08:04:13;65.75;;;29.15;;
41514;SDS011;27247;48.020;16.720;2023-04-07T08:08:23;26.85;;;14.38;;
41514;SDS011;27247;48.020;16.720;2023-04-07T08:12:33;19.47;;;12.47;;
41514;SDS011;27247;48.020;16.720;2023-04-07T08:16:44;21.83;;;11.32;;
41514;SDS011;27247;48.020;16.720;2023-04-07T08:20:55;21.20;;;10.60;;
41514;SDS011;27247;48.020;16.720;2023-04-07T08:25:06;17.35;;;10.23;;
41514;SDS011;27247;48.020;16.720;2023-04-07T08:29:17;15.43;;;10.10;;
41514;SDS011;27247;48.020;16.720;2023-04-07T08:33:27;19.13;;;10.40;;
41514;SDS011;27247;48.020;16.720;2023-04-07T08:37:38;15.77;;;10.55;;
41514;SDS011;27247;48.020;16.720;2023-04-07T08:41:50;23.10;;;10.35;;
41514;SDS011;27247;48.020;16.720;2023-04-07T08:46:00;18.40;;;10.18;;
41514;SDS011;27247;48.020;16.720;2023-04-07T08:50:12;18.63;;;9.15;;
41514;SDS011;27247;48.020;16.720;2023-04-07T08:54:25;15.85;;;8.32;;
41514;SDS011;27247;48.020;16.720;2023-04-07T08:58:37;10.70;;;7.90;;
41514;SDS011;27247;48.020;16.720;2023-04-07T09:02:48;12.38;;;8.43;;
41514;SDS011;27247;48.020;16.720;2023-04-07T09:07:00;12.52;;;8.40;;
41514;SDS011;27247;48.020;16.720;2023-04-07T09:11:13;11.65;;;7.28;;
41514;SDS011;27247;48.020;16.720;2023-04-07T09:15:23;15.00;;;8.57;;
41514;SDS011;27247;48.020;16.720;2023-04-07T09:19:35;18.67;;;8.75;;
41514;SDS011;27247;48.020;16.720;2023-04-07T09:23:45;15.82;;;9.80;;
41514;SDS011;27247;48.020;16.720;2023-04-07T09:27:57;13.70;;;9.38;;
41514;SDS011;27247;48.020;16.720;2023-04-07T09:32:08;15.77;;;10.73;;
41514;SDS011;27247;48.020;16.720;2023-04-07T09:36:19;15.23;;;9.85;;
41514;SDS011;27247;48.020;16.720;2023-04-07T09:40:29;15.50;;;9.85;;
41514;SDS011;27247;48.020;16.720;2023-04-07T09:44:40;17.90;;;10.00;;
41514;SDS011;27247;48.020;16.720;2023-04-07T09:48:59;20.40;;;10.45;;
41514;SDS011;27247;48.020;16.720;2023-04-07T09:53:14;16.92;;;10.57;;
41514;SDS011;27247;48.020;16.720;2023-04-07T09:57:25;17.35;;;9.52;;
41514;SDS011;27247;48.020;16.720;2023-04-07T10:01:36;16.13;;;9.43;;
41514;SDS011;27247;48.020;16.720;2023-04-07T10:05:47;18.65;;;9.88;;
41514;SDS011;27247;48.020;16.720;2023-04-07T10:09:58;16.73;;;9.98;;
41514;SDS011;27247;48.020;16.720;2023-04-07T10:14:09;16.60;;;10.27;;
41514;SDS011;27247;48.020;16.720;2023-04-07T10:18:20;17.70;;;10.20;;
41514;SDS011;27247;48.020;16.720;2023-04-07T10:22:34;19.45;;;12.13;;
41514;SDS011;27247;48.020;16.720;2023-04-07T10:26:51;17.92;;;10.77;;
41514;SDS011;27247;48.020;16.720;2023-04-07T10:31:03;20.83;;;10.98;;
41514;SDS011;27247;48.020;16.720;2023-04-07T10:35:14;28.85;;;16.92;;
41514;SDS011;27247;48.020;16.720;2023-04-07T10:39:26;32.08;;;16.00;;
41514;SDS011;27247;48.020;16.720;2023-04-07T10:43:37;26.30;;;15.07;;
41514;SDS011;27247;48.020;16.720;2023-04-07T10:56:20;23.00;;;14.85;;
41514;SDS011;27247;48.020;16.720;2023-04-07T11:00:31;29.15;;;14.90;;
41514;SDS011;27247;48.020;16.720;2023-04-07T11:04:44;21.88;;;14.23;;
41514;SDS011;27247;48.020;16.720;2023-04-07T11:08:55;27.02;;;15.35;;
41514;SDS011;27247;48.020;16.720;2023-04-07T11:13:06;28.27;;;16.23;;
41514;SDS011;27247;48.020;16.720;2023-04-07T11:17:17;24.63;;;14.25;;
41514;SDS011;27247;48.020;16.720;2023-04-07T11:21:27;23.33;;;14.13;;
41514;SDS011;27247;48.020;16.720;2023-04-07T11:25:40;23.75;;;13.75;;
41514;SDS011;27247;48.020;16.720;2023-04-07T11:29:52;21.60;;;12.23;;
41514;SDS011;27247;48.020;16.720;2023-04-07T11:34:03;24.77;;;13.27;;
41514;SDS011;27247;48.020;16.720;2023-04-07T11:38:14;23.20;;;12.35;;
41514;SDS011;27247;48.020;16.720;2023-04-07T11:42:35;20.85;;;12.25;;
41514;SDS011;27247;48.020;16.720;2023-04-07T11:47:05;20.58;;;12.40;;
41514;SDS011;27247;48.020;16.720;2023-04-07T11:51:20;21.67;;;12.57;;
41514;SDS011;27247;48.020;16.720;2023-04-07T11:55:34;22.23;;;12.63;;
41514;SDS011;27247;48.020;16.720;2023-04-07T11:59:45;20.02;;;11.80;;
41514;SDS011;27247;48.020;16.720;2023-04-07T12:03:59;16.70;;;12.17;;
41514;SDS011;27247;48.020;16.720;2023-04-07T12:08:12;18.58;;;11.00;;
41514;SDS011;27247;48.020;16.720;2023-04-07T12:12:26;19.38;;;11.68;;
41514;SDS011;27247;48.020;16.720;2023-04-07T12:16:38;18.42;;;12.32;;
41514;SDS011;27247;48.020;16.720;2023-04-07T12:20:48;21.75;;;11.30;;
41514;SDS011;27247;48.020;16.720;2023-04-07T12:24:59;17.33;;;11.75;;
41514;SDS011;27247;48.020;16.720;2023-04-07T12:29:09;19.60;;;12.38;;
41514;SDS011;27247;48.020;16.720;2023-04-07T12:33:20;15.18;;;10.75;;
41514;SDS011;27247;48.020;16.720;2023-04-07T12:37:30;17.75;;;11.35;;
41514;SDS011;27247;48.020;16.720;2023-04-07T12:41:41;21.83;;;12.35;;
41514;SDS011;27247;48.020;16.720;2023-04-07T12:45:54;19.08;;;11.73;;
41514;SDS011;27247;48.020;16.720;2023-04-07T12:50:04;20.70;;;12.90;;
41514;SDS011;27247;48.020;16.720;2023-04-07T12:54:15;21.98;;;12.55;;
41514;SDS011;27247;48.020;16.720;2023-04-07T12:58:26;19.70;;;12.02;;
41514;SDS011;27247;48.020;16.720;2023-04-07T13:02:36;27.73;;;13.25;;
41514;SDS011;27247;48.020;16.720;2023-04-07T13:06:47;23.17;;;13.27;;
41514;SDS011;27247;48.020;16.720;2023-04-07T13:10:58;24.65;;;13.32;;
41514;SDS011;27247;48.020;16.720;2023-04-07T13:15:10;21.17;;;13.55;;
41514;SDS011;27247;48.020;16.720;2023-04-07T13:19:21;22.30;;;12.75;;
41514;SDS011;27247;48.020;16.720;2023-04-07T13:23:31;26.58;;;13.60;;
41514;SDS011;27247;48.020;16.720;2023-04-07T13:27:41;21.05;;;13.45;;
41514;SDS011;27247;48.020;16.720;2023-04-07T13:31:52;25.23;;;16.87;;
41514;SDS011;27247;48.020;16.720;2023-04-07T13:36:02;26.60;;;16.17;;
41514;SDS011;27247;48.020;16.720;2023-04-07T13:40:12;25.83;;;14.83;;
41514;SDS011;27247;48.020;16.720;2023-04-07T13:44:23;21.48;;;13.35;;
41514;SDS011;27247;48.020;16.720;2023-04-07T13:48:35;20.48;;;14.05;;
41514;SDS011;27247;48.020;16.720;2023-04-07T13:52:45;24.17;;;13.63;;
41514;SDS011;27247;48.020;16.720;2023-04-07T13:56:55;23.37;;;14.47;;
41514;SDS011;27247;48.020;16.720;2023-04-07T14:01:06;19.25;;;12.95;;
41514;SDS011;27247;48.020;16.720;2023-04-07T14:05:17;21.55;;;13.00;;
41514;SDS011;27247;48.020;16.720;2023-04-07T14:09:27;24.70;;;13.27;;
41514;SDS011;27247;48.020;16.720;2023-04-07T14:13:38;25.58;;;15.00;;
41514;SDS011;27247;48.020;16.720;2023-04-07T14:17:49;22.38;;;14.65;;
41514;SDS011;27247;48.020;16.720;2023-04-07T14:21:59;27.07;;;15.40;;
41514;SDS011;27247;48.020;16.720;2023-04-07T14:26:10;21.52;;;13.35;;
41514;SDS011;27247;48.020;16.720;2023-04-07T14:30:21;26.27;;;14.57;;
41514;SDS011;27247;48.020;16.720;2023-04-07T14:34:32;23.85;;;15.75;;
41514;SDS011;27247;48.020;16.720;2023-04-07T14:38:43;23.13;;;14.48;;
41514;SDS011;27247;48.020;16.720;2023-04-07T14:42:53;21.55;;;13.35;;
41514;SDS011;27247;48.020;16.720;2023-04-07T14:47:04;26.92;;;14.98;;
41514;SDS011;27247;48.020;16.720;2023-04-07T14:51:15;24.40;;;14.30;;
41514;SDS011;27247;48.020;16.720;2023-04-07T14:55:26;23.35;;;13.77;;
41514;SDS011;27247;48.020;16.720;2023-04-07T14:59:36;23.98;;;14.63;;
41514;SDS011;27247;48.020;16.720;2023-04-07T15:03:47;24.13;;;14.20;;
41514;SDS011;27247;48.020;16.720;2023-04-07T15:07:57;19.93;;;12.50;;
41514;SDS011;27247;48.020;16.720;2023-04-07T15:12:07;16.98;;;11.57;;
41514;SDS011;27247;48.020;16.720;2023-04-07T15:16:18;18.83;;;12.47;;
41514;SDS011;27247;48.020;16.720;2023-04-07T15:20:28;16.42;;;11.10;;
41514;SDS011;27247;48.020;16.720;2023-04-07T15:24:39;18.23;;;11.30;;
41514;SDS011;27247;48.020;16.720;2023-04-07T15:28:49;21.60;;;11.30;;
41514;SDS011;27247;48.020;16.720;2023-04-07T15:33:01;20.98;;;11.93;;
41514;SDS011;27247;48.020;16.720;2023-04-07T15:37:13;19.63;;;11.50;;
41514;SDS011;27247;48.020;16.720;2023-04-07T15:41:23;18.03;;;11.40;;
41514;SDS011;27247;48.020;16.720;2023-04-07T15:45:33;19.58;;;12.48;;
41514;SDS011;27247;48.020;16.720;2023-04-07T15:49:44;21.85;;;13.68;;
41514;SDS011;27247;48.020;16.720;2023-04-07T15:53:54;20.07;;;12.73;;
41514;SDS011;27247;48.020;16.720;2023-04-07T15:58:05;16.55;;;11.93;;
41514;SDS011;27247;48.020;16.720;2023-04-07T16:02:17;24.23;;;13.52;;
41514;SDS011;27247;48.020;16.720;2023-04-07T16:06:27;25.33;;;14.75;;
41514;SDS011;27247;48.020;16.720;2023-04-07T16:10:38;24.77;;;14.55;;
41514;SDS011;27247;48.020;16.720;2023-04-07T16:14:48;23.63;;;15.37;;
41514;SDS011;27247;48.020;16.720;2023-04-07T16:18:59;21.77;;;14.70;;
41514;SDS011;27247;48.020;16.720;2023-04-07T16:23:09;21.55;;;14.93;;
41514;SDS011;27247;48.020;16.720;2023-04-07T16:27:20;23.35;;;14.93;;
41514;SDS011;27247;48.020;16.720;2023-04-07T16:31:30;28.43;;;16.50;;
41514;SDS011;27247;48.020;16.720;2023-04-07T16:35:40;25.87;;;16.63;;
41514;SDS011;27247;48.020;16.720;2023-04-07T16:39:53;25.87;;;16.90;;
41514;SDS011;27247;48.020;16.720;2023-04-07T16:44:05;26.92;;;16.23;;
41514;SDS011;27247;48.020;16.720;2023-04-07T16:48:15;26.60;;;16.13;;
41514;SDS011;27247;48.020;16.720;2023-04-07T16:52:25;28.75;;;16.83;;
41514;SDS011;27247;48.020;16.720;2023-04-07T16:56:36;25.45;;;17.10;;
41514;SDS011;27247;48.020;16.720;2023-04-07T17:00:46;23.80;;;16.92;;
41514;SDS011;27247;48.020;16.720;2023-04-07T17:04:56;27.60;;;17.70;;
41514;SDS011;27247;48.020;16.720;2023-04-07T17:09:06;27.33;;;18.63;;
41514;SDS011;27247;48.020;16.720;2023-04-07T17:13:17;29.38;;;18.20;;
41514;SDS011;27247;48.020;16.720;2023-04-07T17:17:27;26.00;;;17.60;;
41514;SDS011;27247;48.020;16.720;2023-04-07T17:21:38;28.02;;;18.33;;
41514;SDS011;27247;48.020;16.720;2023-04-07T17:25:48;28.00;;;17.40;;
41514;SDS011;27247;48.020;16.720;2023-04-07T17:29:59;28.52;;;19.45;;
41514;SDS011;27247;48.020;16.720;2023-04-07T17:34:10;33.78;;;19.70;;
41514;SDS011;27247;48.020;16.720;2023-04-07T17:38:20;26.83;;;18.63;;
41514;SDS011;27247;48.020;16.720;2023-04-07T17:42:31;28.37;;;18.77;;
41514;SDS011;27247;48.020;16.720;2023-04-07T17:46:42;29.02;;;19.42;;
41514;SDS011;27247;48.020;16.720;2023-04-07T17:50:53;38.42;;;24.30;;
41514;SDS011;27247;48.020;16.720;2023-04-07T17:55:03;30.83;;;20.90;;
41514;SDS011;27247;48.020;16.720;2023-04-07T17:59:15;30.15;;;21.92;;
41514;SDS011;27247;48.020;16.720;2023-04-07T18:03:25;33.85;;;20.20;;
41514;SDS011;27247;48.020;16.720;2023-04-07T18:07:36;36.78;;;22.98;;
41514;SDS011;27247;48.020;16.720;2023-04-07T18:11:46;31.63;;;21.40;;
41514;SDS011;27247;48.020;16.720;2023-04-07T18:15:57;35.42;;;23.63;;
41514;SDS011;27247;48.020;16.720;2023-04-07T18:20:08;44.13;;;23.90;;
41514;SDS011;27247;48.020;16.720;2023-04-07T18:24:19;33.92;;;21.38;;
41514;SDS011;27247;48.020;16.720;2023-04-07T18:28:30;30.52;;;19.30;;
41514;SDS011;27247;48.020;16.720;2023-04-07T18:32:41;29.67;;;19.85;;
41514;SDS011;27247;48.020;16.720;2023-04-07T18:36:52;26.15;;;18.83;;
41514;SDS011;27247;48.020;16.720;2023-04-07T18:41:07;28.20;;;18.55;;
41514;SDS011;27247;48.020;16.720;2023-04-07T18:45:17;28.08;;;18.75;;
41514;SDS011;27247;48.020;16.720;2023-04-07T18:49:28;26.10;;;19.55;;
41514;SDS011;27247;48.020;16.720;2023-04-07T18:53:39;28.45;;;19.35;;
41514;SDS011;27247;48.020;16.720;2023-04-07T18:57:49;32.25;;;19.95;;
41514;SDS011;27247;48.020;16.720;2023-04-07T19:01:59;36.92;;;23.02;;
41514;SDS011;27247;48.020;16.720;2023-04-07T19:06:14;35.38;;;22.65;;
41514;SDS011;27247;48.020;16.720;2023-04-07T19:10:25;32.13;;;22.45;;
41514;SDS011;27247;48.020;16.720;2023-04-07T19:14:35;37.53;;;22.45;;
41514;SDS011;27247;48.020;16.720;2023-04-07T19:18:46;29.23;;;20.97;;
41514;SDS011;27247;48.020;16.720;2023-04-07T19:22:56;37.78;;;22.33;;
41514;SDS011;27247;48.020;16.720;2023-04-07T19:27:07;36.40;;;23.70;;
41514;SDS011;27247;48.020;16.720;2023-04-07T19:31:17;31.50;;;22.55;;
41514;SDS011;27247;48.020;16.720;2023-04-07T19:35:29;33.78;;;22.15;;
41514;SDS011;27247;48.020;16.720;2023-04-07T19:39:40;32.97;;;22.10;;
41514;SDS011;27247;48.020;16.720;2023-04-07T19:43:51;32.53;;;20.88;;
41514;SDS011;27247;48.020;16.720;2023-04-07T19:48:02;35.83;;;23.05;;
41514;SDS011;27247;48.020;16.720;2023-04-07T19:52:12;44.63;;;30.63;;
41514;SDS011;27247;48.020;16.720;2023-04-07T19:56:23;38.53;;;24.85;;
41514;SDS011;27247;48.020;16.720;2023-04-07T20:00:34;30.90;;;21.88;;
41514;SDS011;27247;48.020;16.720;2023-04-07T20:04:45;34.10;;;22.45;;
41514;SDS011;27247;48.020;16.720;2023-04-07T20:08:56;33.45;;;23.13;;
41514;SDS011;27247;48.020;16.720;2023-04-07T20:13:07;34.97;;;22.88;;
41514;SDS011;27247;48.020;16.720;2023-04-07T20:17:18;36.00;;;22.85;;
41514;SDS011;27247;48.020;16.720;2023-04-07T20:21:29;31.38;;;21.40;;
41514;SDS011;27247;48.020;16.720;2023-04-07T20:25:41;38.58;;;24.30;;
41514;SDS011;27247;48.020;16.720;2023-04-07T20:29:51;47.83;;;25.80;;
41514;SDS011;27247;48.020;16.720;2023-04-07T20:34:01;36.38;;;21.98;;
41514;SDS011;27247;48.020;16.720;2023-04-07T20:38:12;30.27;;;22.10;;
41514;SDS011;27247;48.020;16.720;2023-04-07T20:42:22;32.35;;;21.35;;
41514;SDS011;27247;48.020;16.720;2023-04-07T20:46:33;27.63;;;19.67;;
41514;SDS011;27247;48.020;16.720;2023-04-07T20:50:44;34.58;;;21.38;;
41514;SDS011;27247;48.020;16.720;2023-04-07T20:54:54;32.85;;;21.08;;
41514;SDS011;27247;48.020;16.720;2023-04-07T20:59:05;31.50;;;21.10;;
41514;SDS011;27247;48.020;16.720;2023-04-07T21:03:15;31.67;;;20.17;;
41514;SDS011;27247;48.020;16.720;2023-04-07T21:07:26;31.20;;;20.70;;
41514;SDS011;27247;48.020;16.720;2023-04-07T21:11:36;33.95;;;21.13;;
41514;SDS011;27247;48.020;16.720;2023-04-07T21:15:46;36.07;;;23.77;;
41514;SDS011;27247;48.020;16.720;2023-04-07T21:19:57;35.88;;;23.75;;
41514;SDS011;27247;48.020;16.720;2023-04-07T21:28:25;38.10;;;24.83;;
41514;SDS011;27247;48.020;16.720;2023-04-07T21:32:35;39.58;;;25.23;;
41514;SDS011;27247;48.020;16.720;2023-04-07T21:36:45;41.90;;;26.42;;
41514;SDS011;27247;48.020;16.720;2023-04-07T21:40:56;43.92;;;26.58;;
41514;SDS011;27247;48.020;16.720;2023-04-07T21:45:06;42.30;;;26.15;;
41514;SDS011;27247;48.020;16.720;2023-04-07T21:49:17;47.45;;;29.23;;
41514;SDS011;27247;48.020;16.720;2023-04-07T21:53:31;43.85;;;26.45;;
41514;SDS011;27247;48.020;16.720;2023-04-07T21:57:41;47.25;;;27.08;;
41514;SDS011;27247;48.020;16.720;2023-04-07T22:01:53;45.35;;;27.15;;
41514;SDS011;27247;48.020;16.720;2023-04-07T22:06:04;46.55;;;28.00;;
41514;SDS011;27247;48.020;16.720;2023-04-07T22:10:15;48.67;;;29.33;;
41514;SDS011;27247;48.020;16.720;2023-04-07T22:14:25;53.70;;;30.15;;
41514;SDS011;27247;48.020;16.720;2023-04-07T22:18:35;48.38;;;29.25;;
41514;SDS011;27247;48.020;16.720;2023-04-07T22:22:46;51.15;;;30.50;;
41514;SDS011;27247;48.020;16.720;2023-04-07T22:26:56;53.67;;;31.80;;
41514;SDS011;27247;48.020;16.720;2023-04-07T22:31:07;55.03;;;31.42;;
41514;SDS011;27247;48.020;16.720;2023-04-07T22:35:18;52.92;;;31.65;;
41514;SDS011;27247;48.020;16.720;2023-04-07T22:39:28;52.67;;;32.87;;
41514;SDS011;27247;48.020;16.720;2023-04-07T22:43:39;56.50;;;32.70;;
41514;SDS011;27247;48.020;16.720;2023-04-07T22:47:49;63.83;;;34.75;;
41514;SDS011;27247;48.020;16.720;2023-04-07T22:52:01;58.30;;;33.28;;
41514;SDS011;27247;48.020;16.720;2023-04-07T22:56:11;60.97;;;35.58;;
41514;SDS011;27247;48.020;16.720;2023-04-07T23:00:22;61.30;;;34.25;;
41514;SDS011;27247;48.020;16.720;2023-04-07T23:04:32;61.17;;;35.72;;
41514;SDS011;27247;48.020;16.720;2023-04-07T23:08:43;61.20;;;35.00;;
41514;SDS011;27247;48.020;16.720;2023-04-07T23:12:53;61.63;;;35.65;;
41514;SDS011;27247;48.020;16.720;2023-04-07T23:17:04;64.93;;;36.83;;
41514;SDS011;27247;48.020;16.720;2023-04-07T23:21:14;65.57;;;37.60;;
41514;SDS011;27247;48.020;16.720;2023-04-07T23:25:24;74.22;;;38.20;;
41514;SDS011;27247;48.020;16.720;2023-04-07T23:29:36;63.67;;;36.35;;
41514;SDS011;27247;48.020;16.720;2023-04-07T23:33:46;68.05;;;36.85;;
41514;SDS011;27247;48.020;16.720;2023-04-07T23:37:57;61.35;;;33.30;;
41514;SDS011;27247;48.020;16.720;2023-04-07T23:42:07;61.57;;;33.17;;
41514;SDS011;27247;48.020;16.720;2023-04-07T23:46:17;63.95;;;35.58;;
41514;SDS011;27247;48.020;16.720;2023-04-07T23:50:27;68.07;;;34.63;;
41514;SDS011;27247;48.020;16.720;2023-04-07T23:54:38;66.85;;;32.88;;
41514;SDS011;27247;48.020;16.720;2023-04-07T23:58:48;59.33;;;31.98;;
